createdAt,value
2018-04-15T00:02:17.132Z,32.23
2018-04-15T00:07:20.217Z,30.27
2018-04-15T00:12:24.091Z,28.70
2018-04-15T00:17:28.673Z,28.87
2018-04-15T00:22:31.770Z,32.10
2018-04-15T00:27:35.633Z,35.27
2018-04-15T00:32:38.717Z,34.07
2018-04-15T00:37:42.639Z,34.43
2018-04-15T00:42:46.527Z,32.20
2018-04-15T00:47:49.614Z,31.13
2018-04-15T00:52:52.711Z,29.07
2018-04-15T00:57:56.573Z,33.60
2018-04-15T01:02:59.662Z,29.83
2018-04-15T01:08:02.750Z,29.13
2018-04-15T01:13:05.862Z,28.20
2018-04-15T01:18:09.709Z,24.37
2018-04-15T01:23:13.577Z,26.50
2018-04-15T01:28:16.677Z,22.23
2018-04-15T01:33:20.525Z,21.80
2018-04-15T01:38:23.626Z,25.73
2018-04-15T01:43:28.073Z,21.10
2018-04-15T01:48:31.934Z,18.97
2018-04-15T01:53:35.014Z,19.10
2018-04-15T01:58:38.098Z,21.97
2018-04-15T02:03:42.642Z,18.70
2018-04-15T02:08:45.727Z,21.03
2018-04-15T02:13:50.165Z,18.43
2018-04-15T02:18:54.030Z,18.55
2018-04-15T02:23:57.125Z,17.83
2018-04-15T02:29:00.234Z,17.83
2018-04-15T02:34:03.314Z,18.33
2018-04-15T02:39:06.423Z,20.37
2018-04-15T02:44:10.323Z,22.67
2018-04-15T02:49:13.474Z,20.17
2018-04-15T02:54:16.573Z,22.63
2018-04-15T02:59:21.015Z,22.33
2018-04-15T03:04:24.106Z,23.43
2018-04-15T03:09:27.971Z,28.03
2018-04-15T03:14:31.832Z,29.65
2018-04-15T03:19:35.318Z,28.15
2018-04-15T03:24:39.554Z,24.80
2018-04-15T03:29:43.046Z,26.27
2018-04-15T03:34:47.498Z,24.48
2018-04-15T03:39:52.834Z,23.60
2018-04-15T03:44:56.685Z,22.80
2018-04-15T03:49:59.775Z,21.10
2018-04-15T03:55:02.886Z,26.87
2018-04-15T04:00:05.978Z,26.03
2018-04-15T04:05:10.189Z,28.93
2018-04-15T04:10:13.313Z,27.37
2018-04-15T04:15:17.818Z,27.97
2018-04-15T04:20:38.681Z,26.53
2018-04-15T04:25:57.155Z,25.63
2018-04-15T04:31:01.017Z,28.27
2018-04-15T04:36:04.157Z,26.30
2018-04-15T04:41:08.848Z,25.17
2018-04-15T04:46:13.070Z,24.47
2018-04-15T04:51:16.930Z,26.13
2018-04-15T04:56:20.031Z,28.70
2018-04-15T05:01:23.105Z,25.77
2018-04-15T05:06:26.979Z,26.80
2018-04-15T05:11:30.065Z,19.93
2018-04-15T05:16:33.153Z,21.23
2018-04-15T05:21:36.261Z,22.37
2018-04-15T05:26:39.360Z,23.10
2018-04-15T05:31:43.947Z,21.33
2018-04-15T05:36:47.031Z,23.47
2018-04-15T05:41:50.123Z,22.30
2018-04-15T05:46:53.602Z,21.53
2018-04-15T05:51:56.681Z,16.03
2018-04-15T05:57:00.177Z,15.80
2018-04-15T06:02:03.291Z,18.37
2018-04-15T06:07:07.144Z,11.97
2018-04-15T06:12:10.249Z,10.40
2018-04-15T06:17:13.331Z,9.93
2018-04-15T06:22:17.193Z,14.60
2018-04-15T06:27:20.282Z,14.50
2018-04-15T06:32:23.397Z,16.23
2018-04-15T06:37:26.481Z,17.77
2018-04-15T06:42:30.717Z,14.77
2018-04-15T06:47:33.808Z,13.30
2018-04-15T06:52:38.259Z,10.63
2018-04-15T06:57:42.848Z,7.63
2018-04-15T07:02:45.937Z,7.67
2018-04-15T07:07:49.021Z,7.37
2018-04-15T07:12:53.445Z,6.50
2018-04-15T07:17:58.045Z,6.15
2018-04-15T07:23:01.131Z,4.40
2018-04-15T07:28:04.602Z,5.87
2018-04-15T07:33:07.699Z,4.00
2018-04-15T07:38:12.474Z,4.53
2018-04-15T07:43:16.344Z,5.10
2018-04-15T07:48:21.161Z,6.05
2018-04-15T07:53:24.657Z,5.17
2018-04-15T07:58:27.756Z,4.40
2018-04-15T08:03:32.175Z,3.80
2018-04-15T08:08:35.249Z,3.23
2018-04-15T08:13:38.334Z,3.00
2018-04-15T08:18:41.821Z,1.30
2018-04-15T08:23:45.668Z,0.83
2018-04-15T08:28:49.511Z,0.70
2018-04-15T08:33:53.954Z,0.88
2018-04-15T08:38:57.038Z,0.97
2018-04-15T08:44:01.483Z,0.50
2018-04-15T08:49:04.567Z,0.93
2018-04-15T08:54:07.641Z,1.00
2018-04-15T08:59:10.730Z,0.70
2018-04-15T09:04:13.807Z,0.97
2018-04-15T09:09:18.406Z,1.00
2018-04-15T09:14:23.742Z,0.93
2018-04-15T09:19:26.840Z,0.90
2018-04-15T09:24:29.918Z,1.40
2018-04-15T09:29:33.011Z,2.27
2018-04-15T09:34:37.590Z,1.05
2018-04-15T09:39:40.668Z,1.00
2018-04-15T09:44:43.777Z,1.90
2018-04-15T09:49:47.999Z,1.33
2018-04-15T09:54:52.426Z,1.60
2018-04-15T09:59:57.018Z,1.70
2018-04-15T10:05:01.462Z,1.43
2018-04-15T10:10:04.552Z,0.90
2018-04-15T10:15:08.977Z,2.67
2018-04-15T10:20:13.423Z,1.60
2018-04-15T10:25:16.909Z,1.33
2018-04-15T10:30:21.141Z,1.57
2018-04-15T10:35:24.989Z,1.40
2018-04-15T10:40:28.091Z,1.10
2018-04-15T10:45:31.172Z,2.30
2018-04-15T10:50:35.036Z,1.80
2018-04-15T10:55:38.505Z,1.50
2018-04-15T11:00:42.948Z,0.98
2018-04-15T11:05:47.161Z,1.30
2018-04-15T11:10:51.010Z,1.10
2018-04-15T11:15:55.221Z,1.97
2018-04-15T11:20:58.354Z,1.20
2018-04-15T11:26:02.223Z,1.13
2018-04-15T11:31:06.455Z,1.50
2018-04-15T11:36:10.318Z,0.93
2018-04-15T11:41:14.762Z,1.90
2018-04-15T11:46:17.855Z,1.27
2018-04-15T11:51:21.347Z,0.90
2018-04-15T11:56:24.431Z,1.00
2018-04-15T12:01:27.894Z,1.00
2018-04-15T12:06:30.974Z,0.90
2018-04-15T12:11:35.401Z,1.10
2018-04-15T12:16:39.994Z,0.88
2018-04-15T12:21:43.085Z,0.93
2018-04-15T12:26:46.223Z,1.30
2018-04-15T12:31:49.255Z,2.17
2018-04-15T12:36:52.738Z,1.00
2018-04-15T12:41:57.325Z,0.97
2018-04-15T12:47:00.422Z,0.70
2018-04-15T12:52:04.858Z,1.33
2018-04-15T12:57:08.714Z,0.70
2018-04-15T13:02:12.561Z,0.80
2018-04-15T13:07:15.657Z,0.83
2018-04-15T13:12:18.740Z,2.10
2018-04-15T13:17:22.577Z,2.77
2018-04-15T13:22:25.670Z,0.83
2018-04-15T13:27:29.513Z,0.97
2018-04-15T13:32:33.725Z,2.03
2018-04-15T13:37:37.573Z,1.25
2018-04-15T13:42:41.418Z,1.70
2018-04-15T13:47:45.642Z,1.13
2018-04-15T13:52:48.747Z,1.62
2018-04-15T13:57:52.590Z,1.47
2018-04-15T14:02:55.666Z,1.27
2018-04-15T14:07:58.743Z,0.80
2018-04-15T14:13:02.595Z,1.00
2018-04-15T14:18:06.821Z,0.90
2018-04-15T14:23:10.294Z,1.43
2018-04-15T14:28:14.886Z,1.70
2018-04-15T14:33:17.973Z,1.87
2018-04-15T14:38:21.059Z,1.00
2018-04-15T14:43:25.504Z,1.87
2018-04-15T14:48:29.942Z,2.73
2018-04-15T14:53:33.413Z,2.50
2018-04-15T14:58:36.493Z,0.70
2018-04-15T15:03:40.335Z,2.97
2018-04-15T15:08:43.426Z,2.53
2018-04-15T15:13:46.510Z,1.33
2018-04-15T15:18:50.743Z,0.97
2018-04-15T15:23:54.590Z,2.17
2018-04-15T15:28:57.682Z,2.63
2018-04-15T15:34:02.118Z,1.87
2018-04-15T15:39:06.801Z,1.37
2018-04-15T15:44:09.890Z,0.90
2018-04-15T15:49:13.363Z,1.93
2018-04-15T15:54:16.459Z,2.87
2018-04-15T15:59:19.542Z,1.77
2018-04-15T16:04:24.153Z,1.47
2018-04-15T16:09:28.003Z,2.07
2018-04-15T16:14:31.094Z,1.17
2018-04-15T16:19:34.179Z,1.23
2018-04-15T16:24:38.650Z,2.23
2018-04-15T16:29:42.136Z,1.70
2018-04-15T16:34:46.370Z,3.77
2018-04-15T16:39:50.960Z,1.67
2018-04-15T16:44:55.169Z,1.37
2018-04-15T16:49:59.606Z,1.63
2018-04-15T16:55:03.470Z,1.27
2018-04-15T17:00:08.207Z,1.13
2018-04-15T17:05:11.210Z,1.70
2018-04-15T17:10:14.289Z,1.73
2018-04-15T17:15:17.365Z,1.33
2018-04-15T17:20:21.219Z,1.50
2018-04-15T17:30:25.536Z,2.40
2018-04-15T17:35:29.374Z,3.57
2018-04-15T17:40:32.446Z,3.23
2018-04-15T17:45:35.522Z,2.07
2018-04-15T17:50:38.994Z,2.23
2018-04-15T17:55:43.430Z,3.27
2018-04-15T18:00:47.269Z,1.90
2018-04-15T18:05:50.342Z,2.30
2018-04-15T18:10:54.553Z,3.33
2018-04-15T18:15:58.398Z,2.37
2018-04-15T18:21:01.512Z,2.40
2018-04-15T18:26:04.595Z,1.93
2018-04-15T18:31:08.098Z,4.23
2018-04-15T18:36:12.738Z,3.23
2018-04-15T18:41:17.170Z,3.13
2018-04-15T18:46:21.019Z,4.33
2018-04-15T18:51:24.486Z,3.57
2018-04-15T18:56:28.326Z,3.50
2018-04-15T19:01:31.414Z,3.27
2018-04-15T19:06:35.850Z,2.93
2018-04-15T19:11:40.633Z,6.80
2018-04-15T19:16:44.486Z,4.73
2018-04-15T19:21:49.191Z,4.60
2018-04-15T19:26:57.952Z,4.10
2018-04-15T19:32:01.856Z,3.17
2018-04-15T19:37:05.822Z,3.60
2018-04-15T19:42:09.389Z,5.90
2018-04-15T19:47:12.627Z,4.00
2018-04-15T19:52:16.572Z,6.90
2018-04-15T19:57:19.715Z,5.23
2018-04-15T20:02:22.959Z,5.60
2018-04-15T20:07:26.150Z,3.60
2018-04-15T20:12:29.284Z,5.40
2018-04-15T20:17:33.211Z,4.05
2018-04-15T20:22:37.150Z,3.37
2018-04-15T20:27:42.449Z,4.13
2018-04-15T20:32:45.527Z,4.30
2018-04-15T20:37:48.796Z,6.23
2018-04-15T20:42:52.047Z,3.27
2018-04-15T20:47:56.606Z,2.70
2018-04-15T20:53:00.163Z,5.00
2018-04-15T20:58:04.025Z,5.83
2018-04-15T21:03:07.267Z,3.63
2018-04-15T21:08:10.411Z,4.87
2018-04-15T21:13:14.502Z,3.95
2018-04-15T21:18:17.639Z,3.12
2018-04-15T21:23:20.821Z,3.67
2018-04-15T21:28:24.093Z,5.53
2018-04-15T21:33:28.060Z,2.80
2018-04-15T21:38:31.611Z,3.47
2018-04-15T21:43:35.189Z,4.50
2018-04-15T21:48:38.354Z,3.60
2018-04-15T21:53:42.266Z,4.70
2018-04-15T21:58:45.399Z,3.97
2018-04-15T22:03:49.279Z,4.07
2018-04-15T22:08:52.374Z,5.73
2018-04-15T22:13:55.482Z,6.82
2018-04-15T22:18:59.707Z,6.13
2018-04-15T22:24:03.715Z,6.83
2018-04-15T22:29:08.226Z,4.30
2018-04-15T22:34:11.433Z,4.47
2018-04-15T22:39:14.620Z,4.13
2018-04-15T22:44:17.859Z,4.93
2018-04-15T22:49:22.919Z,5.20
2018-04-15T22:54:26.074Z,4.37
2018-04-15T22:59:29.297Z,6.10
2018-04-15T23:04:32.480Z,5.80
2018-04-15T23:09:35.621Z,5.40
2018-04-15T23:14:38.831Z,6.13
2018-04-15T23:19:42.845Z,5.70
2018-04-15T23:24:46.069Z,6.27
2018-04-15T23:29:49.279Z,7.00
2018-04-15T23:34:52.465Z,4.20
2018-04-15T23:39:55.746Z,4.73
2018-04-15T23:45:00.929Z,4.97
2018-04-15T23:50:04.126Z,5.23
2018-04-15T23:55:08.464Z,5.45
